createdAt,value
2022-10-22T00:00:15.948Z,100.00
2022-10-22T00:01:20.151Z,100.00
2022-10-22T00:02:22.541Z,100.00
2022-10-22T00:03:25.974Z,100.00
2022-10-22T00:04:32.846Z,100.00
2022-10-22T00:05:38.290Z,100.00
2022-10-22T00:06:40.364Z,100.00
2022-10-22T00:07:43.515Z,100.00
2022-10-22T00:08:45.960Z,100.00
2022-10-22T00:09:49.958Z,100.00
2022-10-22T00:10:52.934Z,100.00
2022-10-22T00:11:56.183Z,100.00
2022-10-22T00:13:00.290Z,100.00
2022-10-22T00:14:03.396Z,100.00
2022-10-22T00:15:07.028Z,100.00
2022-10-22T00:16:10.526Z,100.00
2022-10-22T00:17:12.564Z,100.00
2022-10-22T00:18:15.805Z,100.00
2022-10-22T00:19:18.210Z,100.00
2022-10-22T00:20:21.257Z,100.00
2022-10-22T00:21:23.985Z,100.00
2022-10-22T00:22:27.152Z,100.00
2022-10-22T00:23:29.741Z,100.00
2022-10-22T00:24:33.163Z,100.00
2022-10-22T00:25:36.445Z,100.00
2022-10-22T00:26:40.385Z,100.00
2022-10-22T00:27:42.880Z,100.00
2022-10-22T00:28:47.712Z,100.00
2022-10-22T00:29:49.795Z,100.00
2022-10-22T00:30:58.017Z,100.00
2022-10-22T00:32:00.289Z,100.00
2022-10-22T00:33:03.394Z,100.00
2022-10-22T00:34:05.970Z,100.00
2022-10-22T00:35:09.367Z,100.00
2022-10-22T00:36:11.377Z,100.00
2022-10-22T00:37:14.401Z,100.00
2022-10-22T00:38:16.980Z,100.00
2022-10-22T00:39:23.368Z,100.00
2022-10-22T00:40:25.768Z,100.00
2022-10-22T00:41:29.101Z,100.00
2022-10-22T00:42:31.240Z,100.00
2022-10-22T00:43:35.070Z,100.00
2022-10-22T00:45:14.435Z,100.00
2022-10-22T00:46:17.694Z,100.00
2022-10-22T00:47:22.954Z,100.00
2022-10-22T00:48:31.232Z,100.00
2022-10-22T00:49:33.263Z,100.00
2022-10-22T00:50:39.621Z,100.00
2022-10-22T00:51:42.071Z,100.00
2022-10-22T00:52:45.590Z,100.00
2022-10-22T00:53:51.157Z,100.00
2022-10-22T00:54:54.373Z,100.00
2022-10-22T00:55:57.026Z,100.00
2022-10-22T00:57:00.230Z,100.00
2022-10-22T00:58:02.948Z,100.00
2022-10-22T01:00:13.622Z,100.00
2022-10-22T01:01:21.630Z,100.00
2022-10-22T01:02:24.286Z,100.00
2022-10-22T01:03:27.448Z,100.00
2022-10-22T01:04:29.543Z,100.00
2022-10-22T01:05:40.467Z,100.00
2022-10-22T01:06:42.735Z,100.00
2022-10-22T01:07:49.500Z,100.00
2022-10-22T01:08:58.291Z,100.00
2022-10-22T01:10:06.392Z,100.00
2022-10-22T01:11:16.841Z,100.00
2022-10-22T01:12:25.179Z,100.00
2022-10-22T01:13:36.846Z,100.00
2022-10-22T01:15:04.524Z,100.00
2022-10-22T01:16:12.515Z,100.00
2022-10-22T01:17:25.008Z,100.00
2022-10-22T01:18:35.944Z,100.00
2022-10-22T01:19:50.064Z,100.00
2022-10-22T01:21:05.930Z,100.00
2022-10-22T01:22:17.022Z,100.00
2022-10-22T01:23:36.281Z,100.00
2022-10-22T01:24:52.409Z,100.00
2022-10-22T01:26:04.540Z,100.00
2022-10-22T01:27:27.771Z,100.00
2022-10-22T01:28:57.619Z,100.00
2022-10-22T01:30:03.934Z,100.00
2022-10-22T01:31:10.159Z,100.00
2022-10-22T01:32:17.111Z,100.00
2022-10-22T01:33:23.085Z,100.00
2022-10-22T01:34:26.188Z,100.00
2022-10-22T01:36:38.964Z,100.00
2022-10-22T01:37:45.656Z,100.00
2022-10-22T01:38:49.703Z,100.00
2022-10-22T01:39:54.179Z,100.00
2022-10-22T01:40:57.568Z,100.00
2022-10-22T01:42:00.734Z,100.00
2022-10-22T01:43:04.928Z,100.00
2022-10-22T01:44:30.805Z,100.00
2022-10-22T01:45:35.826Z,100.00
2022-10-22T01:46:39.571Z,100.00
2022-10-22T01:47:54.386Z,100.00
2022-10-22T01:49:16.119Z,100.00
2022-10-22T01:50:45.454Z,100.00
2022-10-22T01:51:58.817Z,100.00
2022-10-22T01:53:14.220Z,100.00
2022-10-22T01:54:27.208Z,100.00
2022-10-22T01:55:36.399Z,100.00
2022-10-22T01:56:55.875Z,100.00
2022-10-22T01:58:06.239Z,100.00
2022-10-22T01:59:16.648Z,100.00
2022-10-22T02:00:20.860Z,100.00
2022-10-22T02:01:31.888Z,100.00
2022-10-22T02:02:42.049Z,100.00
2022-10-22T02:03:49.295Z,100.00
2022-10-22T02:04:57.199Z,100.00
2022-10-22T02:06:05.161Z,100.00
2022-10-22T02:07:11.736Z,100.00
2022-10-22T02:08:18.526Z,100.00
2022-10-22T02:09:23.110Z,100.00
2022-10-22T02:10:27.216Z,100.00
2022-10-22T02:11:29.857Z,100.00
2022-10-22T02:12:34.961Z,100.00
2022-10-22T02:13:42.465Z,100.00
2022-10-22T02:14:46.903Z,100.00
2022-10-22T02:15:53.027Z,100.00
2022-10-22T02:16:59.305Z,100.00
2022-10-22T02:18:01.501Z,100.00
2022-10-22T02:19:09.071Z,100.00
2022-10-22T02:20:16.471Z,100.00
2022-10-22T02:21:19.583Z,100.00
2022-10-22T02:22:21.988Z,100.00
2022-10-22T02:23:25.109Z,100.00
2022-10-22T02:24:27.781Z,100.00
2022-10-22T02:25:33.776Z,100.00
2022-10-22T02:26:41.983Z,100.00
2022-10-22T02:27:47.797Z,100.00
2022-10-22T02:28:58.321Z,100.00
2022-10-22T02:30:06.489Z,100.00
2022-10-22T02:31:15.200Z,100.00
2022-10-22T02:32:22.893Z,100.00
2022-10-22T02:33:28.852Z,100.00
2022-10-22T02:34:33.236Z,100.00
2022-10-22T02:35:36.593Z,100.00
2022-10-22T02:36:42.786Z,100.00
2022-10-22T02:37:48.759Z,100.00
2022-10-22T02:38:53.344Z,100.00
2022-10-22T02:39:56.452Z,100.00
2022-10-22T02:41:00.106Z,100.00
2022-10-22T02:42:03.055Z,100.00
2022-10-22T02:43:06.615Z,100.00
2022-10-22T02:44:10.955Z,100.00
2022-10-22T02:45:14.098Z,100.00
2022-10-22T02:46:17.728Z,100.00
2022-10-22T02:47:21.234Z,100.00
2022-10-22T02:48:23.288Z,100.00
2022-10-22T02:49:26.338Z,100.00
2022-10-22T02:50:28.523Z,100.00
2022-10-22T02:51:32.562Z,100.00
2022-10-22T02:52:35.716Z,100.00
2022-10-22T02:53:39.374Z,100.00
2022-10-22T02:54:41.444Z,100.00
2022-10-22T02:55:44.583Z,100.00
2022-10-22T02:56:46.825Z,100.00
2022-10-22T02:57:49.931Z,100.00
2022-10-22T02:58:52.064Z,100.00
2022-10-22T02:59:55.273Z,100.00
2022-10-22T03:00:57.522Z,100.00
2022-10-22T03:02:01.999Z,100.00
2022-10-22T03:03:04.059Z,100.00
2022-10-22T03:04:07.093Z,100.00
2022-10-22T03:05:10.244Z,100.00
2022-10-22T03:06:13.672Z,100.00
2022-10-22T03:07:15.909Z,100.00
2022-10-22T03:08:19.150Z,100.00
2022-10-22T03:09:24.035Z,100.00
2022-10-22T03:10:27.972Z,100.00
2022-10-22T03:11:30.023Z,100.00
2022-10-22T03:12:33.113Z,100.00
2022-10-22T03:13:35.204Z,100.00
2022-10-22T03:14:39.665Z,100.00
2022-10-22T03:15:41.856Z,100.00
2022-10-22T03:16:45.036Z,100.00
2022-10-22T03:17:48.450Z,100.00
2022-10-22T03:18:51.473Z,100.00
2022-10-22T03:19:53.630Z,100.00
2022-10-22T03:21:05.412Z,100.00
2022-10-22T03:22:10.540Z,100.00
2022-10-22T03:23:16.561Z,100.00
2022-10-22T03:24:21.536Z,100.00
2022-10-22T03:25:28.525Z,100.00
2022-10-22T03:26:32.730Z,100.00
2022-10-22T03:27:37.662Z,100.00
2022-10-22T03:28:41.334Z,100.00
2022-10-22T03:29:46.938Z,100.00
2022-10-22T03:30:49.007Z,100.00
2022-10-22T03:31:53.074Z,100.00
2022-10-22T03:32:56.518Z,100.00
2022-10-22T03:33:59.583Z,100.00
2022-10-22T03:35:01.797Z,100.00
2022-10-22T03:36:05.467Z,100.00
2022-10-22T03:37:08.527Z,100.00
2022-10-22T03:38:10.970Z,100.00
2022-10-22T03:39:15.826Z,100.00
2022-10-22T03:40:19.015Z,100.00
2022-10-22T03:41:22.268Z,100.00
2022-10-22T03:42:24.892Z,100.00
2022-10-22T03:43:28.527Z,100.00
2022-10-22T03:44:31.164Z,100.00
2022-10-22T03:45:34.271Z,100.00
2022-10-22T03:46:36.643Z,100.00
2022-10-22T03:47:39.933Z,100.00
2022-10-22T03:48:43.526Z,100.00
2022-10-22T03:49:46.651Z,100.00
2022-10-22T03:50:49.552Z,100.00
2022-10-22T03:51:52.604Z,100.00
2022-10-22T03:52:54.663Z,100.00
2022-10-22T03:53:57.737Z,100.00
2022-10-22T03:54:59.776Z,100.00
2022-10-22T03:56:02.975Z,100.00
2022-10-22T03:57:05.733Z,100.00
2022-10-22T03:58:08.816Z,100.00
2022-10-22T03:59:10.942Z,100.00
2022-10-22T04:00:14.211Z,100.00
2022-10-22T04:01:16.332Z,100.00
2022-10-22T04:02:19.448Z,100.00
2022-10-22T04:03:21.500Z,100.00
2022-10-22T04:04:26.069Z,100.00
2022-10-22T04:05:28.161Z,100.00
2022-10-22T04:06:31.830Z,100.00
2022-10-22T04:07:33.839Z,100.00
2022-10-22T04:08:37.624Z,100.00
2022-10-22T04:09:39.774Z,100.00
2022-10-22T04:10:42.853Z,100.00
2022-10-22T04:11:44.925Z,100.00
2022-10-22T04:12:49.259Z,100.00
2022-10-22T04:13:51.273Z,100.00
2022-10-22T04:14:54.322Z,100.00
2022-10-22T04:15:56.451Z,100.00
2022-10-22T04:16:59.495Z,100.00
2022-10-22T04:18:01.531Z,100.00
2022-10-22T04:19:04.613Z,100.00
2022-10-22T04:20:09.289Z,100.00
2022-10-22T04:21:14.159Z,100.00
2022-10-22T04:22:16.197Z,100.00
2022-10-22T04:23:19.266Z,100.00
2022-10-22T04:24:21.423Z,100.00
2022-10-22T04:25:24.509Z,100.00
2022-10-22T04:26:26.718Z,100.00
2022-10-22T04:27:31.465Z,100.00
2022-10-22T04:28:33.567Z,100.00
2022-10-22T04:29:36.839Z,100.00
2022-10-22T04:30:38.872Z,100.00
2022-10-22T04:31:41.966Z,100.00
2022-10-22T04:32:44.169Z,100.00
2022-10-22T04:33:47.612Z,100.00
2022-10-22T04:34:49.634Z,100.00
2022-10-22T04:35:54.060Z,100.00
2022-10-22T04:36:56.554Z,100.00
2022-10-22T04:37:59.661Z,100.00
2022-10-22T04:39:02.536Z,100.00
2022-10-22T04:40:06.525Z,100.00
2022-10-22T04:41:10.433Z,100.00
2022-10-22T04:42:13.814Z,100.00
2022-10-22T04:43:15.920Z,100.00
2022-10-22T04:44:18.965Z,100.00
2022-10-22T04:45:22.054Z,100.00
2022-10-22T04:46:27.764Z,100.00
2022-10-22T04:47:30.941Z,100.00
2022-10-22T04:48:33.033Z,100.00
2022-10-22T04:49:36.113Z,100.00
2022-10-22T04:50:38.212Z,100.00
2022-10-22T04:51:43.799Z,100.00
2022-10-22T04:52:45.958Z,100.00
2022-10-22T04:53:50.149Z,100.00
2022-10-22T04:54:52.232Z,100.00
2022-10-22T04:55:55.324Z,100.00
2022-10-22T04:56:58.416Z,100.00
2022-10-22T04:58:01.382Z,100.00
2022-10-22T04:59:06.823Z,100.00
2022-10-22T05:00:10.126Z,100.00
2022-10-22T05:01:15.576Z,100.00
2022-10-22T05:02:17.730Z,100.00
2022-10-22T05:03:20.768Z,100.00
2022-10-22T05:04:22.775Z,100.00
2022-10-22T05:05:25.805Z,100.00
2022-10-22T05:06:29.021Z,100.00
2022-10-22T05:07:33.496Z,100.00
2022-10-22T05:08:35.700Z,100.00
2022-10-22T05:09:39.105Z,100.00
2022-10-22T05:10:41.127Z,100.00
2022-10-22T05:11:48.436Z,100.00
2022-10-22T05:12:51.607Z,100.00
2022-10-22T05:13:55.144Z,100.00
2022-10-22T05:14:58.177Z,100.00
2022-10-22T05:16:01.589Z,100.00
2022-10-22T05:17:04.684Z,100.00
2022-10-22T05:18:06.803Z,100.00
2022-10-22T05:19:10.175Z,100.00
2022-10-22T05:20:12.372Z,100.00
2022-10-22T05:21:17.523Z,100.00
2022-10-22T05:22:19.605Z,100.00
2022-10-22T05:23:24.065Z,100.00
2022-10-22T05:24:26.827Z,100.00
2022-10-22T05:25:29.921Z,100.00
2022-10-22T05:26:31.981Z,100.00
2022-10-22T05:27:35.023Z,100.00
2022-10-22T05:28:37.574Z,100.00
2022-10-22T05:29:40.726Z,100.00
2022-10-22T05:30:42.770Z,100.00
2022-10-22T05:31:45.923Z,100.00
2022-10-22T05:32:47.985Z,100.00
2022-10-22T05:33:51.110Z,100.00
2022-10-22T05:34:53.237Z,100.00
2022-10-22T05:35:56.683Z,100.00
2022-10-22T05:36:59.773Z,100.00
2022-10-22T05:38:01.840Z,100.00
2022-10-22T05:39:06.809Z,100.00
2022-10-22T05:40:19.313Z,100.00
2022-10-22T05:41:24.496Z,100.00
2022-10-22T05:42:26.558Z,100.00
2022-10-22T05:43:30.129Z,100.00
2022-10-22T05:44:32.364Z,100.00
2022-10-22T05:45:38.145Z,100.00
2022-10-22T05:46:43.296Z,100.00
2022-10-22T05:47:45.462Z,100.00
2022-10-22T05:48:50.904Z,100.00
2022-10-22T05:49:54.343Z,100.00
2022-10-22T05:50:58.334Z,100.00
2022-10-22T05:52:00.387Z,100.00
2022-10-22T05:53:03.464Z,100.00
2022-10-22T05:54:08.480Z,100.00
2022-10-22T05:55:11.517Z,100.00
2022-10-22T05:56:15.930Z,100.00
2022-10-22T05:57:19.013Z,100.00
2022-10-22T05:58:21.085Z,100.00
2022-10-22T05:59:24.102Z,100.00
2022-10-22T06:00:26.166Z,100.00
2022-10-22T06:01:31.236Z,100.00
2022-10-22T06:02:33.350Z,100.00
2022-10-22T06:03:36.563Z,100.00
2022-10-22T06:04:38.674Z,100.00
2022-10-22T06:05:41.805Z,100.00
2022-10-22T06:06:47.230Z,100.00
2022-10-22T06:07:49.317Z,100.00
2022-10-22T06:08:53.885Z,100.00
2022-10-22T06:09:57.417Z,100.00
2022-10-22T06:11:01.738Z,100.00
2022-10-22T06:12:04.232Z,100.00
2022-10-22T06:13:08.205Z,100.00
2022-10-22T06:14:10.762Z,100.00
2022-10-22T06:15:14.665Z,100.00
2022-10-22T06:16:16.793Z,100.00
2022-10-22T06:17:20.054Z,100.00
2022-10-22T06:18:22.103Z,100.00
2022-10-22T06:19:26.870Z,100.00
2022-10-22T06:20:28.928Z,100.00
2022-10-22T06:21:32.983Z,100.00
2022-10-22T06:22:35.033Z,100.00
2022-10-22T06:23:39.069Z,100.00
2022-10-22T06:24:45.058Z,100.00
2022-10-22T06:25:57.975Z,100.00
2022-10-22T06:27:01.065Z,100.00
2022-10-22T06:28:03.247Z,100.00
2022-10-22T06:29:06.365Z,100.00
2022-10-22T06:30:09.422Z,100.00
2022-10-22T06:31:12.506Z,100.00
2022-10-22T06:32:14.595Z,100.00
2022-10-22T06:33:17.669Z,100.00
2022-10-22T06:34:19.779Z,100.00
2022-10-22T06:35:22.818Z,100.00
2022-10-22T06:36:26.418Z,100.00
2022-10-22T06:37:28.479Z,100.00
2022-10-22T06:38:31.552Z,100.00
2022-10-22T06:39:34.592Z,100.00
2022-10-22T06:40:36.655Z,100.00
2022-10-22T06:41:41.274Z,100.00
2022-10-22T06:42:43.486Z,100.00
2022-10-22T06:43:47.570Z,100.00
2022-10-22T06:44:49.700Z,100.00
2022-10-22T06:45:52.766Z,100.00
2022-10-22T06:46:54.817Z,100.00
2022-10-22T06:47:58.268Z,100.00
2022-10-22T06:49:03.104Z,100.00
2022-10-22T06:50:06.880Z,100.00
2022-10-22T06:51:10.952Z,100.00
2022-10-22T06:52:14.072Z,100.00
2022-10-22T06:53:16.188Z,100.00
2022-10-22T06:54:19.394Z,100.00
2022-10-22T06:55:21.486Z,100.00
2022-10-22T06:56:26.558Z,100.00
2022-10-22T06:57:30.207Z,100.00
2022-10-22T06:58:33.204Z,100.00
2022-10-22T06:59:35.222Z,100.00
2022-10-22T07:00:38.257Z,100.00
2022-10-22T07:01:42.326Z,100.00
2022-10-22T07:02:44.448Z,100.00
2022-10-22T07:03:47.655Z,100.00
2022-10-22T07:04:49.780Z,100.00
2022-10-22T07:05:52.871Z,100.00
2022-10-22T07:06:55.218Z,100.00
2022-10-22T07:07:58.191Z,100.00
2022-10-22T07:09:00.902Z,100.00
2022-10-22T07:10:03.977Z,100.00
2022-10-22T07:11:07.376Z,100.00
2022-10-22T07:12:10.424Z,100.00
2022-10-22T07:13:13.805Z,100.00
2022-10-22T07:14:16.909Z,100.00
2022-10-22T07:15:18.910Z,100.00
2022-10-22T07:19:39.314Z,100.00
2022-10-22T07:20:41.590Z,100.00
2022-10-22T07:21:44.660Z,100.00
2022-10-22T07:22:46.823Z,100.00
2022-10-22T07:23:50.173Z,100.00
2022-10-22T07:24:52.219Z,100.00
2022-10-22T07:26:59.692Z,100.00
2022-10-22T07:28:01.699Z,100.00
2022-10-22T07:29:06.943Z,100.00
2022-10-22T07:30:09.899Z,100.00
2022-10-22T07:31:14.478Z,100.00
2022-10-22T07:32:18.750Z,100.00
2022-10-22T07:33:23.648Z,100.00
2022-10-22T07:34:25.666Z,100.00
2022-10-22T07:35:28.739Z,100.00
2022-10-22T07:36:30.765Z,100.00
2022-10-22T07:37:33.775Z,100.00
2022-10-22T07:38:36.469Z,100.00
2022-10-22T07:39:39.505Z,100.00
2022-10-22T07:40:41.783Z,100.00
2022-10-22T07:41:44.800Z,100.00
2022-10-22T07:42:46.796Z,100.00
2022-10-22T07:43:53.658Z,100.00
2022-10-22T07:44:57.044Z,100.00
2022-10-22T07:46:00.716Z,100.00
2022-10-22T07:47:04.598Z,100.00
2022-10-22T07:48:08.099Z,100.00
2022-10-22T07:49:11.530Z,100.00
2022-10-22T07:50:18.510Z,100.00
2022-10-22T07:51:26.307Z,100.00
2022-10-22T07:52:35.406Z,100.00
2022-10-22T07:53:40.548Z,100.00
2022-10-22T07:54:44.776Z,100.00
2022-10-22T07:55:50.235Z,100.00
2022-10-22T07:56:54.227Z,100.00
2022-10-22T07:57:57.352Z,100.00
2022-10-22T07:59:03.420Z,100.00
2022-10-22T08:00:08.986Z,100.00
2022-10-22T08:01:20.598Z,100.00
2022-10-22T08:02:23.409Z,100.00
2022-10-22T08:03:28.423Z,100.00
2022-10-22T08:04:30.508Z,100.00
2022-10-22T08:05:33.575Z,100.00
2022-10-22T08:06:38.614Z,100.00
2022-10-22T08:07:40.885Z,100.00
2022-10-22T08:08:45.758Z,100.00
2022-10-22T08:09:47.893Z,100.00
2022-10-22T08:10:53.937Z,100.00
2022-10-22T08:11:56.023Z,100.00
2022-10-22T08:12:59.831Z,100.00
2022-10-22T08:14:01.913Z,100.00
2022-10-22T08:15:07.906Z,100.00
2022-10-22T08:16:10.218Z,100.00
2022-10-22T08:17:13.297Z,100.00
2022-10-22T08:18:15.418Z,100.00
2022-10-22T08:19:21.161Z,100.00
2022-10-22T08:20:23.267Z,100.00
2022-10-22T08:21:26.670Z,100.00
2022-10-22T08:22:29.198Z,100.00
2022-10-22T08:23:32.885Z,100.00
2022-10-22T08:24:35.021Z,100.00
2022-10-22T08:25:38.259Z,100.00
2022-10-22T08:26:41.154Z,100.00
2022-10-22T08:27:44.346Z,100.00
2022-10-22T08:28:46.491Z,100.00
2022-10-22T08:29:49.993Z,100.00
2022-10-22T08:30:53.423Z,100.00
2022-10-22T08:31:56.459Z,100.00
2022-10-22T08:32:58.504Z,100.00
2022-10-22T08:34:01.684Z,100.00
2022-10-22T08:35:04.422Z,100.00
2022-10-22T08:36:08.809Z,100.00
2022-10-22T08:37:14.334Z,100.00
2022-10-22T08:38:17.462Z,100.00
2022-10-22T08:39:19.624Z,100.00
2022-10-22T08:40:29.676Z,100.00
2022-10-22T08:41:39.389Z,100.00
2022-10-22T08:43:03.333Z,100.00
2022-10-22T08:44:24.298Z,100.00
2022-10-22T08:45:34.554Z,100.00
2022-10-22T08:46:53.819Z,100.00
2022-10-22T08:48:08.987Z,100.00
2022-10-22T08:49:18.386Z,100.00
2022-10-22T08:50:27.100Z,100.00
2022-10-22T08:51:34.148Z,100.00
2022-10-22T08:52:38.025Z,100.00
2022-10-22T08:53:51.595Z,100.00
2022-10-22T08:54:59.556Z,100.00
2022-10-22T08:56:01.830Z,100.00
2022-10-22T08:57:21.353Z,100.00
2022-10-22T08:58:33.088Z,100.00
2022-10-22T08:59:41.754Z,100.00
2022-10-22T09:00:47.522Z,100.00
2022-10-22T09:01:54.358Z,100.00
2022-10-22T09:03:17.193Z,100.00
2022-10-22T09:04:25.433Z,100.00
2022-10-22T09:05:44.064Z,100.00
2022-10-22T09:06:49.540Z,100.00
2022-10-22T09:07:56.669Z,100.00
2022-10-22T09:09:01.593Z,100.00
2022-10-22T09:10:04.171Z,100.00
2022-10-22T09:11:15.066Z,100.00
2022-10-22T09:12:20.275Z,100.00
2022-10-22T09:13:24.624Z,100.00
2022-10-22T09:14:28.043Z,100.00
2022-10-22T09:15:31.469Z,100.00
2022-10-22T09:16:39.810Z,100.00
2022-10-22T09:17:53.366Z,100.00
2022-10-22T09:19:05.410Z,100.00
2022-10-22T09:20:16.290Z,100.00
2022-10-22T09:21:30.267Z,100.00
2022-10-22T09:22:38.221Z,100.00
2022-10-22T09:23:56.693Z,100.00
2022-10-22T09:25:03.115Z,100.00
2022-10-22T09:26:14.779Z,100.00
2022-10-22T09:27:19.629Z,100.00
2022-10-22T09:28:22.868Z,100.00
2022-10-22T09:29:32.960Z,100.00
2022-10-22T09:30:38.700Z,100.00
2022-10-22T09:31:42.155Z,100.00
2022-10-22T09:32:47.570Z,100.00
2022-10-22T09:33:51.127Z,100.00
2022-10-22T09:34:59.228Z,100.00
2022-10-22T09:36:03.619Z,100.00
2022-10-22T09:37:09.229Z,100.00
2022-10-22T09:38:13.934Z,100.00
2022-10-22T09:39:27.948Z,100.00
2022-10-22T09:40:29.998Z,100.00
2022-10-22T09:41:33.248Z,100.00
2022-10-22T09:42:35.386Z,100.00
2022-10-22T09:43:38.777Z,100.00
2022-10-22T09:44:43.734Z,100.00
2022-10-22T09:45:56.187Z,100.00
2022-10-22T09:46:58.229Z,100.00
2022-10-22T09:48:12.940Z,100.00
2022-10-22T09:49:17.742Z,100.00
2022-10-22T09:50:27.383Z,100.00
2022-10-22T09:51:40.590Z,100.00
2022-10-22T09:52:44.095Z,100.00
2022-10-22T09:53:48.366Z,100.00
2022-10-22T09:54:53.752Z,100.00
2022-10-22T09:55:57.901Z,100.00
2022-10-22T09:57:07.232Z,100.00
2022-10-22T09:58:12.379Z,100.00
2022-10-22T09:59:16.742Z,100.00
2022-10-22T10:00:19.918Z,100.00
2022-10-22T10:01:29.169Z,100.00
2022-10-22T10:02:38.786Z,100.00
2022-10-22T10:03:43.557Z,100.00
2022-10-22T10:04:48.840Z,100.00
2022-10-22T10:05:55.645Z,100.00
2022-10-22T10:06:58.418Z,100.00
2022-10-22T10:08:09.458Z,100.00
2022-10-22T10:09:16.960Z,100.00
2022-10-22T10:10:32.881Z,100.00
2022-10-22T10:11:42.910Z,99.77
2022-10-22T10:12:52.610Z,99.66
2022-10-22T10:14:08.031Z,99.58
2022-10-22T10:15:20.934Z,99.19
2022-10-22T10:16:45.987Z,99.26
2022-10-22T10:17:58.153Z,99.01
2022-10-22T10:19:19.255Z,99.11
2022-10-22T10:20:32.390Z,98.84
2022-10-22T10:21:44.978Z,98.69
2022-10-22T10:22:59.201Z,98.53
2022-10-22T10:24:09.978Z,97.68
2022-10-22T10:25:31.928Z,97.78
2022-10-22T10:26:43.325Z,97.27
2022-10-22T10:27:54.030Z,96.93
2022-10-22T10:29:05.707Z,96.55
2022-10-22T10:30:14.101Z,96.56
2022-10-22T10:31:26.359Z,96.09
2022-10-22T10:32:45.027Z,95.82
2022-10-22T10:33:57.042Z,95.39
2022-10-22T10:35:15.277Z,94.76
2022-10-22T10:36:24.979Z,94.73
2022-10-22T10:37:32.281Z,94.55
2022-10-22T10:38:49.465Z,94.65
2022-10-22T10:40:11.687Z,94.45
2022-10-22T10:41:20.493Z,94.12
2022-10-22T10:42:31.894Z,94.09
2022-10-22T10:43:45.856Z,93.71
2022-10-22T10:45:03.681Z,93.27
2022-10-22T10:47:34.186Z,92.33
2022-10-22T10:48:50.109Z,92.27
2022-10-22T10:49:58.413Z,91.98
2022-10-22T10:51:12.838Z,91.75
2022-10-22T10:52:24.210Z,91.54
2022-10-22T10:53:40.193Z,91.25
2022-10-22T10:54:48.459Z,91.12
2022-10-22T10:55:59.717Z,90.49
2022-10-22T10:57:10.482Z,90.16
2022-10-22T10:58:18.195Z,89.79
2022-10-22T10:59:33.434Z,89.71
2022-10-22T11:00:41.159Z,89.82
2022-10-22T11:01:57.360Z,89.70
2022-10-22T11:03:28.261Z,89.02
2022-10-22T11:05:00.179Z,88.88
2022-10-22T11:06:07.799Z,88.85
2022-10-22T11:07:30.013Z,88.45
2022-10-22T11:08:41.885Z,88.39
2022-10-22T11:09:51.009Z,88.32
2022-10-22T11:11:01.139Z,88.43
2022-10-22T11:12:08.892Z,88.04
2022-10-22T11:13:19.478Z,87.71
2022-10-22T11:14:27.896Z,87.72
2022-10-22T11:15:34.684Z,87.15
2022-10-22T11:16:43.551Z,87.28
2022-10-22T11:17:48.250Z,87.17
2022-10-22T11:18:59.473Z,86.70
2022-10-22T11:20:09.895Z,86.12
2022-10-22T11:21:22.412Z,86.07
2022-10-22T11:22:29.664Z,85.69
2022-10-22T11:23:39.593Z,85.04
2022-10-22T11:24:47.650Z,84.64
2022-10-22T11:25:50.733Z,84.71
2022-10-22T11:26:59.058Z,84.73
2022-10-22T11:28:20.332Z,84.79
2022-10-22T11:29:37.515Z,84.74
2022-10-22T11:30:44.307Z,84.79
2022-10-22T11:31:48.637Z,85.07
2022-10-22T11:32:56.201Z,84.59
2022-10-22T11:34:28.333Z,85.01
2022-10-22T11:35:34.861Z,84.92
2022-10-22T11:36:39.956Z,85.41
2022-10-22T11:37:45.332Z,85.05
2022-10-22T11:38:47.517Z,85.31
2022-10-22T11:39:54.260Z,85.32
2022-10-22T11:40:59.465Z,85.20
2022-10-22T11:42:06.401Z,85.40
2022-10-22T11:43:11.077Z,85.50
2022-10-22T11:44:23.618Z,85.75
2022-10-22T11:45:33.310Z,86.01
2022-10-22T11:46:43.269Z,86.12
2022-10-22T11:47:59.154Z,85.96
2022-10-22T11:49:04.517Z,86.18
2022-10-22T11:50:22.803Z,86.07
2022-10-22T11:51:33.332Z,86.23
2022-10-22T11:52:42.099Z,85.86
2022-10-22T11:53:44.169Z,86.22
2022-10-22T11:54:47.214Z,86.08
2022-10-22T11:55:51.583Z,86.52
2022-10-22T11:57:00.001Z,86.38
2022-10-22T11:58:24.056Z,86.08
2022-10-22T11:59:39.556Z,85.79
2022-10-22T12:00:49.171Z,85.99
2022-10-22T12:01:57.031Z,85.50
2022-10-22T12:03:06.024Z,85.37
2022-10-22T12:04:23.691Z,85.36
2022-10-22T12:05:35.131Z,85.53
2022-10-22T12:06:56.954Z,85.01
2022-10-22T12:08:23.136Z,85.04
2022-10-22T12:09:32.799Z,84.98
2022-10-22T12:10:37.144Z,84.87
2022-10-22T12:11:42.741Z,84.72
2022-10-22T12:12:52.862Z,84.45
2022-10-22T12:14:05.667Z,84.37
2022-10-22T12:15:27.096Z,83.83
2022-10-22T12:16:57.742Z,83.61
2022-10-22T12:18:01.872Z,83.59
2022-10-22T12:19:12.348Z,83.09
2022-10-22T12:20:17.572Z,82.39
2022-10-22T12:21:19.877Z,82.37
2022-10-22T12:22:24.837Z,82.27
2022-10-22T12:23:34.495Z,82.37
2022-10-22T12:24:40.742Z,82.40
2022-10-22T12:25:42.932Z,82.45
2022-10-22T12:26:47.137Z,82.86
2022-10-22T12:27:53.375Z,83.29
2022-10-22T12:29:00.310Z,83.25
2022-10-22T12:30:14.872Z,83.60
2022-10-22T12:31:17.584Z,83.70
2022-10-22T12:32:20.657Z,83.99
2022-10-22T12:33:24.050Z,84.58
2022-10-22T12:34:27.121Z,84.76
2022-10-22T12:35:32.276Z,84.97
2022-10-22T12:36:37.067Z,84.94
2022-10-22T12:37:40.291Z,85.21
2022-10-22T12:38:47.230Z,85.49
2022-10-22T12:39:50.462Z,85.23
2022-10-22T12:40:56.117Z,85.57
2022-10-22T12:41:59.378Z,85.76
2022-10-22T12:43:03.151Z,85.89
2022-10-22T12:44:07.142Z,86.29
2022-10-22T12:45:16.105Z,85.94
2022-10-22T12:46:19.508Z,86.38
2022-10-22T12:47:21.676Z,86.51
2022-10-22T12:48:28.132Z,86.71
2022-10-22T12:49:35.787Z,87.01
2022-10-22T12:50:44.444Z,86.98
2022-10-22T12:51:47.692Z,87.21
2022-10-22T12:52:50.949Z,87.09
2022-10-22T12:53:56.110Z,87.06
2022-10-22T12:54:59.206Z,87.25
2022-10-22T12:56:05.110Z,87.05
2022-10-22T12:57:14.492Z,87.08
2022-10-22T12:58:19.164Z,87.01
2022-10-22T12:59:25.621Z,86.80
2022-10-22T13:00:34.133Z,86.57
2022-10-22T13:01:39.146Z,86.80
2022-10-22T13:02:43.529Z,86.82
2022-10-22T13:03:49.934Z,86.87
2022-10-22T13:05:16.062Z,87.02
2022-10-22T13:06:26.441Z,86.99
2022-10-22T13:07:40.108Z,86.61
2022-10-22T13:08:42.852Z,86.88
2022-10-22T13:09:49.984Z,86.56
2022-10-22T13:10:54.761Z,86.96
2022-10-22T13:12:04.665Z,86.71
2022-10-22T13:13:07.386Z,86.30
2022-10-22T13:14:21.340Z,85.49
2022-10-22T13:15:36.936Z,85.23
2022-10-22T13:16:41.161Z,85.14
2022-10-22T13:17:43.733Z,84.70
2022-10-22T13:18:47.568Z,85.00
2022-10-22T13:20:01.638Z,84.70
2022-10-22T13:21:06.315Z,84.24
2022-10-22T13:22:28.523Z,83.90
2022-10-22T13:23:33.791Z,83.84
2022-10-22T13:24:39.164Z,83.54
2022-10-22T13:25:43.889Z,83.47
2022-10-22T13:26:49.925Z,83.54
2022-10-22T13:27:56.213Z,83.40
2022-10-22T13:29:01.191Z,82.67
2022-10-22T13:30:15.307Z,83.38
2022-10-22T13:31:25.012Z,82.82
2022-10-22T13:32:32.851Z,82.77
2022-10-22T13:33:39.236Z,83.23
2022-10-22T13:34:42.229Z,83.36
2022-10-22T13:35:49.370Z,83.14
2022-10-22T13:36:54.777Z,83.60
2022-10-22T13:37:57.265Z,83.31
2022-10-22T13:39:00.440Z,83.19
2022-10-22T13:40:02.503Z,83.15
2022-10-22T13:41:20.340Z,83.36
2022-10-22T13:42:23.466Z,82.93
2022-10-22T13:43:27.051Z,83.23
2022-10-22T13:44:30.335Z,82.84
2022-10-22T13:45:32.374Z,82.58
2022-10-22T13:46:40.574Z,82.59
2022-10-22T13:47:45.221Z,82.30
2022-10-22T13:48:50.746Z,82.28
2022-10-22T13:50:59.270Z,82.32
2022-10-22T13:52:01.372Z,82.51
2022-10-22T13:53:05.588Z,82.67
2022-10-22T13:54:14.111Z,82.72
2022-10-22T13:55:20.159Z,82.91
2022-10-22T13:56:24.026Z,83.10
2022-10-22T13:57:27.155Z,83.26
2022-10-22T13:58:29.206Z,83.26
2022-10-22T13:59:32.954Z,83.61
2022-10-22T14:00:36.198Z,83.91